Aérodrome :
LOGIN :

S'inscrire | Disclaimer

   EN    FR    IT 

 










Légende :    VFR   VFR Marginal   IFR   IFR Intensif   IFR Très Intensif
Visi : 
Plafond : 
>= 8 km
>= 3000ft
5 à 8 km
1000 à 3000 ft
1500m à 5 km
500 à 1000 ft
800 à 1500m
200 à 500 ft
< 800m
< 200 ft
Symboles :   Orages  Brouillard  Fortes neiges  Fortes précipitations  Vent > 20 kt
SIGMETs :   Divers  Orages  Givrage  Turbulence  Onde Orograph.  Cendres Volcan.






- Altitude de l'aérodrome : 353 ft
- Code IATA : CND


LRCK - Constanta

DERNIER METAR :
  • 150730Z 15007KT 4000 BR FEW018 16/15 Q1016 R18/290095 BECMG 9999 NSW

METARs EXPIRÉS :
  • 150700Z 16008KT 4000 BR FEW018 16/15 Q1016 R18/290095 NOSIG
  • 150630Z 15007KT 6000 FEW015 15/14 Q1016 R18/290095 NOSIG
  • 150600Z 13005KT 8000 NSC 12/12 Q1015 R36/290095 NOSIG
  • 150530Z 13005KT 8000 FEW048 13/12 Q1015 R36/290095 NOSIG
  • 150500Z 13007KT 3000 BR FEW012 SCT040 13/13 Q1015 R36/290095 NOSIG

TAF TAF LRCK
Valide du 15 à 06h jusqu'au 16 à 06h UTC


150500Z 1506/1606 13008KT 9999 SCT015 BKN035
TEMPO 1506/1508 3000 BR BKN010 BKN030
BECMG 1508/1510 20010KT
BECMG 1516/1518 VRB04KT 3000 BR BKN010
BECMG 1519/1521 0600 FG OVC002
TEMPO 1600/1606 0300 FG VV001



MET'MAP, la Météo Aéronautique d'un coup d'oeil ! - Copyright ORBIFLY Décembre 2007 - Disclaimer

ORBIFLY MET'MAP TEAM :

Programmation & Développement : Alexandra Zaïnal
Conception & Développement : Baudouin d'Aumeries
Co-Programmation & Développement : Marc-Olivier Méhu
Soutien technique & logistique : Manuel Goepfert

Contact : metmap@orbifly.com




SOURCES & CREDITS :

   NOAA